Time,TemperatureF,DewpointF,PressureIn,WindDirection,WindDirectionDegrees,WindSpeedMPH,WindSpeedGustMPH,Humidity,HourlyPrecipIn,Conditions,Clouds,dailyrainin,SolarRadiationWatts/m^2,SoftwareType,DateUTC
2014-04-23 00:01:00,73.9,69.1,29.84,SSE,149,0.0,0.0,85,0.00,,CLR,0.00,0.00,VWS V14.00,2014-04-23 04:01:00,
2014-04-23 00:07:00,73.7,68.9,29.84,SSE,149,0.0,0.0,85,0.00,,CLR,0.00,0.00,VWS V14.00,2014-04-23 04:07:00,
2014-04-23 00:12:00,73.5,69.1,29.84,SSE,149,0.0,0.0,86,0.00,,CLR,0.00,0.00,VWS V14.00,2014-04-23 04:12:00,
2014-04-23 00:17:00,73.3,69.2,29.84,SSE,149,0.0,0.0,87,0.00,,CLR,0.00,0.00,VWS V14.00,2014-04-23 04:17:00,
2014-04-23 00:22:00,73.2,69.4,29.84,SSE,149,0.0,0.0,88,0.00,,CLR,0.00,0.00,VWS V14.00,2014-04-23 04:22:00,
2014-04-23 00:27:00,73.1,69.0,29.84,SSE,149,0.0,0.0,87,0.00,,CLR,0.00,0.00,VWS V14.00,2014-04-23 04:27:00,
2014-04-23 00:32:00,72.8,68.7,29.84,SSE,149,0.0,0.0,87,0.00,,CLR,0.00,0.00,VWS V14.00,2014-04-23 04:32:00,
2014-04-23 00:38:00,72.6,68.5,29.85,SSE,149,0.0,0.0,87,0.00,,CLR,0.00,0.00,VWS V14.00,2014-04-23 04:38:00,
2014-04-23 00:42:00,72.6,68.2,29.85,SSE,150,0.0,0.0,86,0.00,,CLR,0.00,0.00,VWS V14.00,2014-04-23 04:42:00,
2014-04-23 00:48:00,72.6,67.2,29.85,SSE,154,0.0,0.0,83,0.00,,CLR,0.00,0.00,VWS V14.00,2014-04-23 04:48:00,
2014-04-23 00:53:00,72.5,66.7,29.84,SSE,157,0.0,0.0,82,0.00,,CLR,0.00,0.00,VWS V14.00,2014-04-23 04:53:00,
2014-04-23 00:58:00,72.4,65.9,29.85,SSE,163,0.0,0.0,80,0.00,,CLR,0.00,0.00,VWS V14.00,2014-04-23 04:58:00,
2014-04-23 01:03:00,72.3,65.8,29.84,SSE,163,0.0,0.0,80,0.00,,CLR,0.00,0.00,VWS V14.00,2014-04-23 05:03:00,
2014-04-23 01:08:00,72.2,66.1,29.85,SSE,163,0.0,0.0,81,0.00,,CLR,0.00,0.00,VWS V14.00,2014-04-23 05:08:00,
2014-04-23 01:13:00,72.0,65.1,29.85,SW,222,0.0,0.0,79,0.00,,CLR,0.00,0.00,VWS V14.00,2014-04-23 05:13:00,
2014-04-23 01:18:00,71.9,65.4,29.85,SW,224,0.0,0.0,80,0.00,,CLR,0.00,0.00,VWS V14.00,2014-04-23 05:18:00,
2014-04-23 01:23:00,71.6,65.1,29.85,SW,226,0.0,0.0,80,0.00,,CLR,0.00,0.00,VWS V14.00,2014-04-23 05:23:00,
2014-04-23 01:28:00,71.3,64.8,29.85,SW,226,0.0,0.0,80,0.00,,CLR,0.00,0.00,VWS V14.00,2014-04-23 05:28:00,
2014-04-23 01:33:00,71.0,64.5,29.85,SW,235,0.0,0.0,80,0.00,,CLR,0.00,0.00,VWS V14.00,2014-04-23 05:33:00,
2014-04-23 01:38:00,70.8,64.3,29.85,SW,236,0.0,0.0,80,0.00,,CLR,0.00,0.00,VWS V14.00,2014-04-23 05:38:00,
2014-04-23 01:43:00,70.7,64.6,29.85,SW,236,0.0,0.0,81,0.00,,CLR,0.00,0.00,VWS V14.00,2014-04-23 05:43:00,
2014-04-23 01:48:00,70.4,64.3,29.85,SW,236,0.0,0.0,81,0.00,,CLR,0.00,0.00,VWS V14.00,2014-04-23 05:48:00,
2014-04-23 01:53:00,70.2,64.4,29.85,SW,236,0.0,0.0,82,0.00,,CLR,0.00,0.00,VWS V14.00,2014-04-23 05:53:00,
2014-04-23 01:58:00,70.0,64.6,29.85,SW,236,0.0,0.0,83,0.00,,CLR,0.00,0.00,VWS V14.00,2014-04-23 05:58:00,
2014-04-23 02:03:00,69.9,64.5,29.84,SW,236,0.0,0.0,83,0.00,,CLR,0.00,0.00,VWS V14.00,2014-04-23 06:03:00,
2014-04-23 02:08:00,69.7,64.7,29.85,SW,236,0.0,0.0,84,0.00,,CLR,0.00,0.00,VWS V14.00,2014-04-23 06:08:00,
2014-04-23 02:13:00,69.6,64.6,29.84,SW,236,0.0,0.0,84,0.00,,CLR,0.00,0.00,VWS V14.00,2014-04-23 06:13:00,
2014-04-23 02:18:00,69.4,64.4,29.84,SW,236,0.0,0.0,84,0.00,,CLR,0.00,0.00,VWS V14.00,2014-04-23 06:18:00,
2014-04-23 02:23:00,69.3,64.6,29.84,SW,236,0.0,0.0,85,0.00,,CLR,0.00,0.00,VWS V14.00,2014-04-23 06:23:00,
2014-04-23 02:28:00,69.3,64.6,29.84,WSW,237,0.0,0.0,85,0.00,,CLR,0.00,0.00,VWS V14.00,2014-04-23 06:28:00,
2014-04-23 02:33:00,69.2,64.5,29.84,WSW,237,0.0,0.0,85,0.00,,CLR,0.00,0.00,VWS V14.00,2014-04-23 06:33:00,
2014-04-23 02:38:00,69.1,64.7,29.84,WSW,237,0.0,0.0,86,0.00,,CLR,0.00,0.00,VWS V14.00,2014-04-23 06:38:00,
2014-04-23 02:43:00,69.0,64.6,29.84,WSW,237,0.0,0.0,86,0.00,,CLR,0.00,0.00,VWS V14.00,2014-04-23 06:43:00,
2014-04-23 02:48:00,69.0,64.6,29.84,WSW,237,0.0,0.0,86,0.00,,CLR,0.00,0.00,VWS V14.00,2014-04-23 06:48:00,
2014-04-23 02:53:00,68.9,64.9,29.83,WSW,237,0.0,0.0,87,0.00,,CLR,0.00,0.00,VWS V14.00,2014-04-23 06:53:00,
2014-04-23 02:58:00,68.8,64.8,29.83,WSW,237,0.0,0.0,87,0.00,,CLR,0.00,0.00,VWS V14.00,2014-04-23 06:58:00,
2014-04-23 03:04:00,68.8,64.8,29.83,WSW,237,0.0,0.0,87,0.00,,CLR,0.00,0.00,VWS V14.00,2014-04-23 07:04:00,
2014-04-23 03:09:00,68.6,64.6,29.83,WSW,237,0.0,0.0,87,0.00,,CLR,0.00,0.00,VWS V14.00,2014-04-23 07:09:00,
2014-04-23 03:14:00,68.5,64.5,29.83,WSW,237,0.0,0.0,87,0.00,,CLR,0.00,0.00,VWS V14.00,2014-04-23 07:14:00,
2014-04-23 03:19:00,68.4,64.4,29.83,WSW,237,0.0,0.0,87,0.00,,CLR,0.00,0.00,VWS V14.00,2014-04-23 07:19:00,
2014-04-23 03:24:00,68.3,64.6,29.83,WSW,237,0.0,0.0,88,0.00,,CLR,0.00,0.00,VWS V14.00,2014-04-23 07:24:00,
2014-04-23 03:29:00,68.2,64.5,29.83,WSW,237,0.0,0.0,88,0.00,,CLR,0.00,0.00,VWS V14.00,2014-04-23 07:29:00,
2014-04-23 03:34:00,68.2,64.5,29.83,WSW,237,0.0,0.0,88,0.00,,CLR,0.00,0.00,VWS V14.00,2014-04-23 07:34:00,
2014-04-23 03:39:00,68.1,64.7,29.83,WSW,237,0.0,0.0,89,0.00,,CLR,0.00,0.00,VWS V14.00,2014-04-23 07:39:00,
2014-04-23 03:44:00,68.1,64.7,29.83,WSW,237,0.0,0.0,89,0.00,,CLR,0.00,0.00,VWS V14.00,2014-04-23 07:44:00,
2014-04-23 03:49:00,68.0,64.6,29.83,WSW,237,0.0,0.0,89,0.00,,CLR,0.00,0.00,VWS V14.00,2014-04-23 07:49:00,
2014-04-23 03:54:00,67.9,64.5,29.83,WSW,237,0.0,0.0,89,0.00,,CLR,0.00,0.00,VWS V14.00,2014-04-23 07:54:00,
2014-04-23 03:59:00,67.7,64.3,29.83,WSW,237,0.0,0.0,89,0.00,,CLR,0.00,0.00,VWS V14.00,2014-04-23 07:59:00,
2014-04-23 04:04:00,67.4,64.4,29.83,WSW,237,0.0,0.0,90,0.00,,CLR,0.00,0.00,VWS V14.00,2014-04-23 08:04:00,
2014-04-23 04:09:00,67.3,64.3,29.83,WSW,237,0.0,0.0,90,0.00,,CLR,0.00,0.00,VWS V14.00,2014-04-23 08:09:00,
2014-04-23 04:14:00,67.0,64.0,29.83,WSW,237,0.0,0.0,90,0.00,,CLR,0.00,0.00,VWS V14.00,2014-04-23 08:14:00,
2014-04-23 04:19:00,66.8,63.8,29.83,WSW,237,0.0,0.0,90,0.00,,CLR,0.00,0.00,VWS V14.00,2014-04-23 08:19:00,
2014-04-23 04:24:00,66.6,63.9,29.83,WSW,237,0.0,0.0,91,0.00,,CLR,0.00,0.00,VWS V14.00,2014-04-23 08:24:00,
2014-04-23 04:29:00,66.4,63.7,29.83,WSW,237,0.0,0.0,91,0.00,,CLR,0.00,0.00,VWS V14.00,2014-04-23 08:29:00,
2014-04-23 04:34:00,66.3,63.6,29.83,WSW,237,0.0,0.0,91,0.00,,CLR,0.00,0.00,VWS V14.00,2014-04-23 08:34:00,
2014-04-23 04:39:00,66.2,63.8,29.83,WSW,237,0.0,0.0,92,0.00,,CLR,0.00,0.00,VWS V14.00,2014-04-23 08:39:00,
2014-04-23 04:44:00,66.2,63.8,29.83,WSW,237,0.0,0.0,92,0.00,,CLR,0.00,0.00,VWS V14.00,2014-04-23 08:44:00,
2014-04-23 04:49:00,66.1,63.7,29.83,WSW,237,0.0,0.0,92,0.00,,CLR,0.00,0.00,VWS V14.00,2014-04-23 08:49:00,
2014-04-23 04:54:00,65.9,63.5,29.83,WSW,237,0.0,0.0,92,0.00,,CLR,0.00,0.00,VWS V14.00,2014-04-23 08:54:00,
2014-04-23 04:59:00,65.8,63.4,29.83,WSW,237,0.0,0.0,92,0.00,,CLR,0.00,0.00,VWS V14.00,2014-04-23 08:59:00,
2014-04-23 05:04:00,65.7,63.3,29.83,WSW,237,0.0,0.0,92,0.00,,CLR,0.00,0.00,VWS V14.00,2014-04-23 09:04:00,
2014-04-23 05:09:00,65.6,63.2,29.83,WSW,237,0.0,0.0,92,0.00,,CLR,0.00,0.00,VWS V14.00,2014-04-23 09:09:00,
2014-04-23 05:14:00,65.5,63.1,29.83,WSW,237,0.0,0.0,92,0.00,,CLR,0.00,0.00,VWS V14.00,2014-04-23 09:14:00,
2014-04-23 05:19:00,65.4,63.0,29.83,WSW,237,0.0,0.0,92,0.00,,CLR,0.00,0.00,VWS V14.00,2014-04-23 09:19:00,
2014-04-23 05:24:00,65.4,63.3,29.83,WSW,237,0.0,0.0,93,0.00,,CLR,0.00,0.00,VWS V14.00,2014-04-23 09:24:00,
2014-04-23 05:29:00,65.4,63.3,29.83,WSW,237,0.0,0.0,93,0.00,,CLR,0.00,0.00,VWS V14.00,2014-04-23 09:29:00,
2014-04-23 05:34:00,65.5,63.4,29.83,WSW,237,0.0,0.0,93,0.00,,CLR,0.00,0.00,VWS V14.00,2014-04-23 09:34:00,
2014-04-23 05:39:00,65.6,63.5,29.83,WSW,237,0.0,0.0,93,0.00,,CLR,0.00,0.00,VWS V14.00,2014-04-23 09:39:00,
2014-04-23 05:44:00,65.7,63.6,29.83,WSW,237,0.0,0.0,93,0.00,,CLR,0.00,0.00,VWS V14.00,2014-04-23 09:44:00,
2014-04-23 05:49:00,65.7,63.6,29.83,WSW,237,0.0,0.0,93,0.00,,CLR,0.00,0.00,VWS V14.00,2014-04-23 09:49:00,
2014-04-23 05:54:00,65.7,63.6,29.83,WSW,237,0.0,0.0,93,0.00,,CLR,0.00,0.00,VWS V14.00,2014-04-23 09:54:00,
2014-04-23 05:59:00,65.7,63.6,29.83,WSW,237,0.0,0.0,93,0.00,,CLR,0.00,0.00,VWS V14.00,2014-04-23 09:59:00,
2014-04-23 06:04:00,65.6,63.5,29.84,WSW,237,0.0,0.0,93,0.00,,CLR,0.00,0.00,VWS V14.00,2014-04-23 10:04:00,
2014-04-23 06:10:00,65.6,63.5,29.84,WSW,237,0.0,0.0,93,0.00,,CLR,0.00,0.00,VWS V14.00,2014-04-23 10:10:00,
2014-04-23 06:15:00,65.5,63.4,29.84,WSW,237,0.0,0.0,93,0.00,,CLR,0.00,0.00,VWS V14.00,2014-04-23 10:15:00,
2014-04-23 06:20:00,65.5,63.4,29.84,WSW,237,0.0,0.0,93,0.00,,CLR,0.00,0.00,VWS V14.00,2014-04-23 10:20:00,
2014-04-23 06:25:00,65.4,63.3,29.84,WSW,237,0.0,0.0,93,0.00,,CLR,0.00,0.00,VWS V14.00,2014-04-23 10:25:00,
2014-04-23 06:30:00,65.4,63.3,29.85,WSW,237,0.0,0.0,93,0.00,,CLR,0.00,0.00,VWS V14.00,2014-04-23 10:30:00,
2014-04-23 06:35:00,65.3,63.2,29.85,WSW,237,0.0,0.0,93,0.00,,CLR,0.00,0.00,VWS V14.00,2014-04-23 10:35:00,
2014-04-23 06:40:00,65.3,63.2,29.85,WSW,237,0.0,0.0,93,0.00,,CLR,0.00,0.00,VWS V14.00,2014-04-23 10:40:00,
2014-04-23 06:45:00,65.2,63.1,29.85,WSW,237,0.0,0.0,93,0.00,,CLR,0.00,0.00,VWS V14.00,2014-04-23 10:45:00,
2014-04-23 06:50:00,65.1,63.0,29.86,WSW,237,0.0,0.0,93,0.00,,CLR,0.00,0.00,VWS V14.00,2014-04-23 10:50:00,
2014-04-23 06:55:00,65.0,62.9,29.86,WSW,237,0.0,0.0,93,0.00,,CLR,0.00,0.00,VWS V14.00,2014-04-23 10:55:00,
2014-04-23 07:00:00,65.1,63.0,29.86,WSW,237,0.0,0.0,93,0.00,,CLR,0.00,11.00,VWS V14.00,2014-04-23 11:00:00,
2014-04-23 07:05:00,65.0,62.9,29.86,WSW,237,0.0,0.0,93,0.00,,CLR,0.00,26.00,VWS V14.00,2014-04-23 11:05:00,
2014-04-23 07:10:00,64.9,62.8,29.86,WSW,237,0.0,0.0,93,0.00,,CLR,0.00,40.00,VWS V14.00,2014-04-23 11:10:00,
2014-04-23 07:15:00,65.0,62.9,29.87,WSW,237,0.0,0.0,93,0.00,,CLR,0.00,58.00,VWS V14.00,2014-04-23 11:15:00,
2014-04-23 07:20:00,65.2,63.1,29.87,WSW,237,0.0,0.0,93,0.00,,CLR,0.00,69.00,VWS V14.00,2014-04-23 11:20:00,
2014-04-23 07:25:00,65.3,63.2,29.88,WSW,237,0.0,0.0,93,0.00,,CLR,0.00,88.00,VWS V14.00,2014-04-23 11:25:00,
2014-04-23 07:30:00,65.4,63.3,29.88,WSW,237,0.0,0.0,93,0.00,,CLR,0.00,105.00,VWS V14.00,2014-04-23 11:30:00,
2014-04-23 07:35:00,65.6,63.5,29.88,WSW,237,0.0,0.0,93,0.00,,CLR,0.00,125.00,VWS V14.00,2014-04-23 11:35:00,
2014-04-23 07:40:00,65.6,63.2,29.87,WSW,237,0.0,0.0,92,0.00,,CLR,0.00,146.00,VWS V14.00,2014-04-23 11:40:00,
2014-04-23 07:45:00,65.8,63.4,29.88,WSW,237,0.0,0.0,92,0.00,,CLR,0.00,163.00,VWS V14.00,2014-04-23 11:45:00,
2014-04-23 07:50:00,65.9,63.5,29.88,WSW,237,0.0,0.0,92,0.00,,CLR,0.00,185.00,VWS V14.00,2014-04-23 11:50:00,
2014-04-23 07:55:00,66.3,63.9,29.88,WSW,237,0.0,0.0,92,0.00,,CLR,0.00,206.00,VWS V14.00,2014-04-23 11:55:00,
2014-04-23 08:00:00,66.6,63.9,29.89,WSW,237,0.0,0.0,91,0.00,,CLR,0.00,227.00,VWS V14.00,2014-04-23 12:00:00,
2014-04-23 08:05:00,66.9,64.2,29.88,WSW,237,0.0,0.0,91,0.00,,CLR,0.00,250.00,VWS V14.00,2014-04-23 12:05:00,
2014-04-23 08:10:00,67.1,64.1,29.89,WSW,237,0.0,0.0,90,0.00,,CLR,0.00,271.00,VWS V14.00,2014-04-23 12:10:00,
2014-04-23 08:15:00,67.5,64.5,29.89,WSW,237,0.0,0.0,90,0.00,,CLR,0.00,288.00,VWS V14.00,2014-04-23 12:15:00,
2014-04-23 08:20:00,67.8,64.4,29.89,WSW,237,0.0,0.0,89,0.00,,CLR,0.00,306.00,VWS V14.00,2014-04-23 12:20:00,
2014-04-23 08:25:00,68.1,64.4,29.89,WSW,237,0.0,0.0,88,0.00,,CLR,0.00,320.00,VWS V14.00,2014-04-23 12:25:00,
2014-04-23 08:30:00,68.3,64.6,29.89,WSW,237,0.0,0.0,88,0.00,,CLR,0.00,341.00,VWS V14.00,2014-04-23 12:30:00,
2014-04-23 08:35:00,68.6,64.9,29.89,WSW,237,0.0,0.0,88,0.00,,CLR,0.00,359.00,VWS V14.00,2014-04-23 12:35:00,
2014-04-23 08:40:00,68.9,64.9,29.89,WSW,242,0.0,0.0,87,0.00,,CLR,0.00,380.00,VWS V14.00,2014-04-23 12:40:00,
2014-04-23 08:45:00,69.2,64.8,29.89,West,265,0.0,0.0,86,0.00,,CLR,0.00,396.00,VWS V14.00,2014-04-23 12:45:00,
2014-04-23 08:50:00,69.5,65.1,29.89,West,265,0.0,0.0,86,0.00,,CLR,0.00,418.00,VWS V14.00,2014-04-23 12:50:00,
2014-04-23 08:55:00,69.8,65.1,29.89,West,265,0.0,0.0,85,0.00,,CLR,0.00,438.00,VWS V14.00,2014-04-23 12:55:00,
2014-04-23 09:00:00,70.0,64.9,29.90,West,265,0.0,0.0,84,0.00,,CLR,0.00,455.00,VWS V14.00,2014-04-23 13:00:00,
2014-04-23 09:05:00,70.3,64.9,29.89,West,265,0.0,0.0,83,0.00,,CLR,0.00,473.00,VWS V14.00,2014-04-23 13:05:00,
2014-04-23 09:10:00,70.6,65.2,29.89,West,277,0.0,0.0,83,0.00,,CLR,0.00,490.00,VWS V14.00,2014-04-23 13:10:00,
2014-04-23 09:15:00,70.6,64.8,29.90,West,277,0.0,0.0,82,0.00,,CLR,0.00,504.00,VWS V14.00,2014-04-23 13:15:00,
2014-04-23 09:20:00,70.7,64.9,29.90,WNW,286,0.0,0.0,82,0.00,,CLR,0.00,520.00,VWS V14.00,2014-04-23 13:20:00,
2014-04-23 09:25:00,71.2,65.1,29.90,WNW,286,0.0,0.0,81,0.00,,CLR,0.00,540.00,VWS V14.00,2014-04-23 13:25:00,
2014-04-23 09:31:00,71.3,65.2,29.90,WNW,288,0.0,0.0,81,0.00,,CLR,0.00,557.00,VWS V14.00,2014-04-23 13:31:00,
2014-04-23 09:35:00,71.6,65.1,29.90,WNW,287,0.0,0.0,80,0.00,,CLR,0.00,577.00,VWS V14.00,2014-04-23 13:35:00,
2014-04-23 09:40:00,72.1,65.2,29.90,WNW,291,0.0,0.0,79,0.00,,CLR,0.00,592.00,VWS V14.00,2014-04-23 13:40:00,
2014-04-23 09:45:00,72.3,64.7,29.90,WNW,292,0.0,0.0,77,0.00,,CLR,0.00,605.00,VWS V14.00,2014-04-23 13:45:00,
2014-04-23 09:50:00,72.4,64.8,29.90,NW,308,0.0,0.0,77,0.00,,CLR,0.00,622.00,VWS V14.00,2014-04-23 13:50:00,
2014-04-23 09:55:00,72.5,64.5,29.90,NW,309,0.0,0.0,76,0.00,,CLR,0.00,636.00,VWS V14.00,2014-04-23 13:55:00,
2014-04-23 10:00:00,72.6,64.2,29.90,NW,306,0.0,0.0,75,0.00,,CLR,0.00,643.00,VWS V14.00,2014-04-23 14:00:00,
2014-04-23 10:05:00,72.7,65.1,29.91,NW,315,0.0,0.0,77,0.00,,CLR,0.00,654.00,VWS V14.00,2014-04-23 14:05:00,
2014-04-23 10:10:00,73.1,64.7,29.91,NW,306,0.0,0.0,75,0.00,,CLR,0.00,670.00,VWS V14.00,2014-04-23 14:10:00,
2014-04-23 10:16:00,73.1,64.3,29.91,NW,309,0.0,0.0,74,0.00,,CLR,0.00,686.00,VWS V14.00,2014-04-23 14:16:00,
2014-04-23 10:21:00,73.0,64.6,29.91,NW,316,0.0,0.0,75,0.00,,CLR,0.00,693.00,VWS V14.00,2014-04-23 14:21:00,
2014-04-23 10:26:00,73.3,64.9,29.91,NW,312,0.0,0.0,75,0.00,,CLR,0.00,705.00,VWS V14.00,2014-04-23 14:26:00,
2014-04-23 10:31:00,73.7,64.9,29.91,NW,306,0.0,0.0,74,0.00,,CLR,0.00,710.00,VWS V14.00,2014-04-23 14:31:00,
2014-04-23 10:36:00,73.7,65.7,29.91,NW,308,0.0,0.0,76,0.00,,CLR,0.00,717.00,VWS V14.00,2014-04-23 14:36:00,
2014-04-23 10:41:00,74.1,65.7,29.91,WNW,302,0.0,0.0,75,0.00,,CLR,0.00,758.00,VWS V14.00,2014-04-23 14:41:00,
2014-04-23 10:46:00,74.2,65.8,29.91,NW,313,0.0,0.0,75,0.00,,CLR,0.00,770.00,VWS V14.00,2014-04-23 14:46:00,
2014-04-23 10:51:00,74.5,65.7,29.91,NW,306,0.0,0.0,74,0.00,,CLR,0.00,782.00,VWS V14.00,2014-04-23 14:51:00,
2014-04-23 10:56:00,74.9,65.3,29.91,West,274,0.0,0.0,72,0.00,,CLR,0.00,773.00,VWS V14.00,2014-04-23 14:56:00,
2014-04-23 11:01:00,74.9,64.9,29.91,West,276,0.0,0.0,71,0.00,,CLR,0.00,798.00,VWS V14.00,2014-04-23 15:01:00,
2014-04-23 11:06:00,75.3,65.7,29.91,West,260,0.0,0.0,72,0.00,,CLR,0.00,814.00,VWS V14.00,2014-04-23 15:06:00,
2014-04-23 11:11:00,75.6,65.5,29.91,West,260,0.0,0.0,71,0.00,,CLR,0.00,812.00,VWS V14.00,2014-04-23 15:11:00,
2014-04-23 11:16:00,75.8,65.3,29.91,West,260,0.0,0.0,70,0.00,,CLR,0.00,828.00,VWS V14.00,2014-04-23 15:16:00,
2014-04-23 11:21:00,75.6,65.1,29.91,West,260,0.0,0.0,70,0.00,,CLR,0.00,833.00,VWS V14.00,2014-04-23 15:21:00,
2014-04-23 11:26:00,75.8,65.3,29.91,West,262,0.0,0.0,70,0.00,,CLR,0.00,840.00,VWS V14.00,2014-04-23 15:26:00,
2014-04-23 11:31:00,76.0,65.5,29.91,West,262,0.0,0.0,70,0.00,,CLR,0.00,849.00,VWS V14.00,2014-04-23 15:31:00,
2014-04-23 11:36:00,76.4,65.1,29.91,West,263,0.0,0.0,68,0.00,,CLR,0.00,861.00,VWS V14.00,2014-04-23 15:36:00,
2014-04-23 11:41:00,76.9,65.5,29.91,West,260,0.0,0.0,68,0.00,,CLR,0.00,875.00,VWS V14.00,2014-04-23 15:41:00,
2014-04-23 11:46:00,77.5,65.7,29.91,West,260,0.0,0.0,67,0.00,,CLR,0.00,875.00,VWS V14.00,2014-04-23 15:46:00,
2014-04-23 11:51:00,77.6,65.3,29.91,West,260,0.0,0.0,66,0.00,,CLR,0.00,863.00,VWS V14.00,2014-04-23 15:51:00,
2014-04-23 11:56:00,77.9,65.2,29.90,West,260,0.0,0.0,65,0.00,,CLR,0.00,895.00,VWS V14.00,2014-04-23 15:56:00,
2014-04-23 12:01:00,77.9,65.2,29.90,West,260,0.0,0.0,65,0.00,,CLR,0.00,900.00,VWS V14.00,2014-04-23 16:01:00,
2014-04-23 12:06:00,77.9,65.2,29.90,West,261,0.0,0.0,65,0.00,,CLR,0.00,896.00,VWS V14.00,2014-04-23 16:06:00,
2014-04-23 12:11:00,77.8,65.1,29.90,West,270,0.0,0.0,65,0.00,,CLR,0.00,912.00,VWS V14.00,2014-04-23 16:11:00,
2014-04-23 12:16:00,77.5,64.4,29.90,WNW,286,0.0,0.0,64,0.00,,CLR,0.00,918.00,VWS V14.00,2014-04-23 16:16:00,
2014-04-23 12:21:00,77.3,64.6,29.90,WNW,286,0.0,0.0,65,0.00,,CLR,0.00,923.00,VWS V14.00,2014-04-23 16:21:00,
2014-04-23 12:26:00,77.4,64.7,29.90,WNW,298,0.0,0.0,65,0.00,,CLR,0.00,928.00,VWS V14.00,2014-04-23 16:26:00,
2014-04-23 12:31:00,77.8,64.7,29.89,WNW,303,0.0,0.0,64,0.00,,CLR,0.00,928.00,VWS V14.00,2014-04-23 16:31:00,
2014-04-23 12:36:00,78.2,65.5,29.89,WNW,296,0.0,0.0,65,0.00,,CLR,0.00,930.00,VWS V14.00,2014-04-23 16:36:00,
2014-04-23 12:41:00,78.7,65.1,29.89,WNW,283,0.0,0.0,63,0.00,,CLR,0.00,939.00,VWS V14.00,2014-04-23 16:41:00,
2014-04-23 12:46:00,78.9,64.8,29.89,WNW,290,0.0,0.0,62,0.00,,CLR,0.00,947.00,VWS V14.00,2014-04-23 16:46:00,
2014-04-23 12:51:00,78.8,64.7,29.89,WNW,292,0.0,0.0,62,0.00,,CLR,0.00,942.00,VWS V14.00,2014-04-23 16:51:00,
2014-04-23 12:56:00,79.0,64.9,29.89,NW,319,0.0,0.0,62,0.00,,CLR,0.00,951.00,VWS V14.00,2014-04-23 16:56:00,
2014-04-23 13:01:00,78.7,65.5,29.89,NW,317,0.0,0.0,64,0.00,,CLR,0.00,969.00,VWS V14.00,2014-04-23 17:01:00,
2014-04-23 13:06:00,79.0,65.8,29.88,NW,320,0.0,0.0,64,0.00,,CLR,0.00,956.00,VWS V14.00,2014-04-23 17:06:00,
2014-04-23 13:11:00,79.6,65.4,29.89,NW,315,0.0,0.0,62,0.00,,CLR,0.00,1011.00,VWS V14.00,2014-04-23 17:11:00,
2014-04-23 13:16:00,79.4,65.3,29.88,NW,323,0.0,0.0,62,0.00,,CLR,0.00,944.00,VWS V14.00,2014-04-23 17:16:00,
2014-04-23 13:21:00,79.4,65.3,29.88,NW,317,0.0,0.0,62,0.00,,CLR,0.00,933.00,VWS V14.00,2014-04-23 17:21:00,
2014-04-23 13:26:00,79.7,64.6,29.88,WNW,300,0.0,0.0,60,0.00,,CLR,0.00,940.00,VWS V14.00,2014-04-23 17:26:00,
2014-04-23 13:31:00,79.8,64.7,29.88,WNW,300,0.0,0.0,60,0.00,,CLR,0.00,977.00,VWS V14.00,2014-04-23 17:31:00,
2014-04-23 13:36:00,79.5,64.9,29.87,WNW,300,0.0,0.0,61,0.00,,CLR,0.00,937.00,VWS V14.00,2014-04-23 17:36:00,
2014-04-23 13:41:00,79.6,64.5,29.87,WNW,300,0.0,0.0,60,0.00,,CLR,0.00,926.00,VWS V14.00,2014-04-23 17:41:00,
2014-04-23 13:47:00,79.9,64.8,29.87,West,267,0.0,0.0,60,0.00,,CLR,0.00,930.00,VWS V14.00,2014-04-23 17:47:00,
2014-04-23 13:52:00,80.7,64.6,29.87,WSW,257,0.0,0.0,58,0.00,,CLR,0.00,926.00,VWS V14.00,2014-04-23 17:52:00,
2014-04-23 13:57:00,81.0,64.3,29.87,WSW,257,0.0,0.0,57,0.00,,CLR,0.00,921.00,VWS V14.00,2014-04-23 17:57:00,
2014-04-23 14:02:00,80.6,64.5,29.87,West,263,0.0,0.0,58,0.00,,CLR,0.00,912.00,VWS V14.00,2014-04-23 18:02:00,
2014-04-23 14:07:00,80.4,64.3,29.87,NW,313,0.0,0.0,58,0.00,,CLR,0.00,912.00,VWS V14.00,2014-04-23 18:07:00,
2014-04-23 14:12:00,80.6,64.5,29.86,NW,313,0.0,0.0,58,0.00,,CLR,0.00,900.00,VWS V14.00,2014-04-23 18:12:00,
2014-04-23 14:17:00,80.5,63.9,29.86,NW,314,0.0,0.0,57,0.00,,CLR,0.00,967.00,VWS V14.00,2014-04-23 18:17:00,
2014-04-23 14:22:00,81.0,64.3,29.86,West,271,0.0,0.0,57,0.00,,CLR,0.00,896.00,VWS V14.00,2014-04-23 18:22:00,
2014-04-23 14:27:00,82.2,65.5,29.86,WSW,254,0.0,0.0,57,0.00,,CLR,0.00,891.00,VWS V14.00,2014-04-23 18:27:00,
2014-04-23 14:32:00,83.1,65.3,29.86,WSW,254,0.0,0.0,55,0.00,,FEW035,0.00,911.00,VWS V14.00,2014-04-23 18:32:00,
2014-04-23 14:37:00,82.6,64.8,29.86,WNW,298,0.0,0.0,55,0.00,,FEW035,0.00,881.00,VWS V14.00,2014-04-23 18:37:00,
2014-04-23 14:42:00,81.9,65.2,29.85,NW,309,0.0,0.0,57,0.00,,FEW035,0.00,872.00,VWS V14.00,2014-04-23 18:42:00,
2014-04-23 14:47:00,82.3,65.1,29.85,NW,306,0.0,0.0,56,0.00,,FEW035,0.00,858.00,VWS V14.00,2014-04-23 18:47:00,
2014-04-23 14:52:00,82.6,64.8,29.85,NW,307,0.0,0.0,55,0.00,,FEW035,0.00,858.00,VWS V14.00,2014-04-23 18:52:00,
2014-04-23 14:57:00,82.2,65.0,29.85,NW,308,0.0,0.0,56,0.00,,FEW035,0.00,886.00,VWS V14.00,2014-04-23 18:57:00,
2014-04-23 15:02:00,82.6,64.8,29.85,WNW,299,0.0,0.0,55,0.00,,FEW035,0.00,842.00,VWS V14.00,2014-04-23 19:02:00,
2014-04-23 15:07:00,82.9,64.0,29.85,WNW,289,0.0,0.0,53,0.00,,FEW035,0.00,809.00,VWS V14.00,2014-04-23 19:07:00,
2014-04-23 15:12:00,82.9,64.6,29.84,WNW,289,0.0,0.0,54,0.00,,FEW035,0.00,835.00,VWS V14.00,2014-04-23 19:12:00,
2014-04-23 15:17:00,83.2,63.8,29.84,West,281,0.0,0.0,52,0.00,,FEW035,0.00,840.00,VWS V14.00,2014-04-23 19:17:00,
2014-04-23 15:22:00,83.9,63.8,29.84,West,281,0.0,0.0,51,0.00,,FEW035,0.00,798.00,VWS V14.00,2014-04-23 19:22:00,
2014-04-23 15:27:00,84.1,64.0,29.84,WNW,292,0.0,0.0,51,0.00,,FEW035,0.00,775.00,VWS V14.00,2014-04-23 19:27:00,
2014-04-23 15:32:00,84.5,63.8,29.84,West,279,0.0,0.0,50,0.00,,FEW035,0.00,758.00,VWS V14.00,2014-04-23 19:32:00,
2014-04-23 15:37:00,84.6,63.9,29.84,West,279,0.0,0.0,50,0.00,,FEW035,0.00,752.00,VWS V14.00,2014-04-23 19:37:00,
2014-04-23 15:42:00,83.9,63.8,29.83,West,280,0.0,0.0,51,0.00,,FEW035,0.00,737.00,VWS V14.00,2014-04-23 19:42:00,
2014-04-23 15:47:00,83.9,64.4,29.83,West,280,0.0,0.0,52,0.00,,FEW035,0.00,714.00,VWS V14.00,2014-04-23 19:47:00,
2014-04-23 15:52:00,83.7,63.7,29.83,West,277,0.0,0.0,51,0.00,,FEW035,0.00,705.00,VWS V14.00,2014-04-23 19:52:00,
2014-04-23 15:57:00,83.2,63.8,29.83,West,277,0.0,0.0,52,0.00,,FEW035,0.00,694.00,VWS V14.00,2014-04-23 19:57:00,
2014-04-23 16:02:00,83.0,64.1,29.83,West,279,0.0,0.0,53,0.00,,FEW035,0.00,694.00,VWS V14.00,2014-04-23 20:02:00,
2014-04-23 16:07:00,83.5,64.6,29.83,West,279,0.0,0.0,53,0.00,,FEW035,0.00,664.00,VWS V14.00,2014-04-23 20:07:00,
2014-04-23 16:12:00,84.7,63.5,29.82,West,279,0.0,0.0,49,0.00,,FEW035,0.00,656.00,VWS V14.00,2014-04-23 20:12:00,